Time;durP1;ratioP1;P1;durP2;ratioP2;P2;SDS_P1;SDS_P2;PMS_P1;PMS_P2;Temp;Humidity;BMP_temperature;BMP_pressure;BME280_temperature;BME280_humidity;BME280_pressure;Samples;Min_cycle;Max_cycle;Signal;HPM_P1;HPM_P2
2021/07/18 00:01:52;;;;;;;5.57;2.67;;;19.10;85.90;;;;;;3587530;40;20020;-65
2021/07/18 00:04:18;;;;;;;10.00;3.30;;;19.10;86.00;;;;;;3583770;40;20044;-66
2021/07/18 00:06:44;;;;;;;7.30;3.00;;;19.00;86.20;;;;;;3580020;40;20031;-66
2021/07/18 00:09:10;;;;;;;4.40;2.65;;;19.00;86.30;;;;;;3584244;39;20633;-65
2021/07/18 00:11:36;;;;;;;4.15;2.88;;;19.00;86.30;;;;;;3588408;39;20047;-65
2021/07/18 00:14:02;;;;;;;5.75;2.78;;;19.00;86.20;;;;;;3586131;39;20197;-66
2021/07/18 00:16:28;;;;;;;7.55;2.53;;;19.00;86.00;;;;;;3581302;40;20065;-66
2021/07/18 00:18:53;;;;;;;5.32;2.63;;;19.00;86.10;;;;;;3583831;40;20405;-66
2021/07/18 00:21:19;;;;;;;5.80;2.45;;;19.00;86.10;;;;;;3583015;40;20059;-65
2021/07/18 00:23:45;;;;;;;5.32;2.97;;;19.00;86.20;;;;;;3582628;40;20029;-65
2021/07/18 00:26:11;;;;;;;4.00;2.63;;;18.90;86.00;;;;;;3586906;40;20033;-65
2021/07/18 00:28:37;;;;;;;4.72;2.55;;;18.90;86.20;;;;;;3588994;39;20097;-65
2021/07/18 00:31:02;;;;;;;6.03;2.95;;;18.90;86.40;;;;;;3585401;39;20037;-65
2021/07/18 00:33:28;;;;;;;4.50;2.90;;;18.90;86.30;;;;;;3582195;40;20330;-66
2021/07/18 00:35:54;;;;;;;5.25;2.85;;;18.90;86.20;;;;;;3585243;40;20032;-67
2021/07/18 00:38:19;;;;;;;5.00;2.55;;;18.90;86.10;;;;;;3587966;40;20822;-67
2021/07/18 00:40:45;;;;;;;5.20;2.67;;;18.90;86.20;;;;;;3586337;40;20059;-66
2021/07/18 00:43:11;;;;;;;6.65;3.00;;;18.80;86.50;;;;;;3582547;40;20029;-66
2021/07/18 00:45:37;;;;;;;4.43;2.35;;;18.90;86.60;;;;;;3582980;40;20301;-66
2021/07/18 00:48:03;;;;;;;7.38;2.75;;;18.80;86.60;;;;;;3586508;40;20060;-66
2021/07/18 00:50:29;;;;;;;7.30;2.80;;;18.80;86.40;;;;;;3588465;40;20118;-66
2021/07/18 00:52:55;;;;;;;6.55;2.75;;;18.80;86.10;;;;;;3584345;39;20024;-66
2021/07/18 00:55:21;;;;;;;4.15;2.65;;;18.80;86.40;;;;;;3582309;40;20024;-66
2021/07/18 00:57:49;;;;;;;3.92;2.65;;;18.70;86.50;;;;;;3585232;40;20155;-67
2021/07/18 01:00:17;;;;;;;4.00;2.60;;;18.70;86.70;;;;;;3579793;40;20051;-66
2021/07/18 01:02:44;;;;;;;5.80;2.95;;;18.70;86.80;;;;;;3582875;40;20035;-66
2021/07/18 01:05:12;;;;;;;9.55;3.00;;;18.70;87.10;;;;;;3587403;40;20821;-65
2021/07/18 01:07:38;;;;;;;5.20;2.80;;;18.70;87.00;;;;;;3586552;39;20045;-66
2021/07/18 01:10:06;;;;;;;3.63;2.50;;;18.70;86.80;;;;;;3582143;40;20106;-66
2021/07/18 01:12:32;;;;;;;5.13;2.53;;;18.60;86.70;;;;;;3583605;40;20051;-66
2021/07/18 01:14:58;;;;;;;6.13;2.45;;;18.60;86.80;;;;;;3587200;40;20116;-66
2021/07/18 01:17:24;;;;;;;4.60;2.45;;;18.60;87.00;;;;;;3586784;40;20028;-66
2021/07/18 01:19:49;;;;;;;8.52;2.70;;;18.60;87.10;;;;;;3583771;40;20059;-66
2021/07/18 01:22:15;;;;;;;4.60;2.65;;;18.60;87.20;;;;;;3581742;40;20025;-66
2021/07/18 01:24:41;;;;;;;6.32;2.90;;;18.50;87.10;;;;;;3585676;40;20032;-66
2021/07/18 01:27:07;;;;;;;4.43;2.85;;;18.60;87.30;;;;;;3587979;40;20040;-66
2021/07/18 01:29:34;;;;;;;8.00;2.95;;;18.50;87.80;;;;;;3586101;39;20029;-66
2021/07/18 01:32:01;;;;;;;3.60;2.05;;;18.50;87.20;;;;;;3580525;40;20536;-66
2021/07/18 01:34:27;;;;;;;3.92;2.60;;;18.50;87.30;;;;;;3585278;40;20028;-67
2021/07/18 01:36:53;;;;;;;3.40;2.47;;;18.50;87.30;;;;;;3590279;39;20115;-66
2021/07/18 01:39:19;;;;;;;5.53;2.70;;;18.50;87.20;;;;;;3589404;39;20037;-66
2021/07/18 01:41:48;;;;;;;5.28;2.95;;;18.50;87.50;;;;;;3585189;40;20036;-67
2021/07/18 01:44:14;;;;;;;5.28;2.72;;;18.50;87.60;;;;;;3583766;40;20481;-67
2021/07/18 01:46:39;;;;;;;2.45;2.10;;;18.50;87.90;;;;;;3588151;40;20028;-66
2021/07/18 01:49:08;;;;;;;4.72;2.45;;;18.50;87.80;;;;;;3591053;39;20127;-70
2021/07/18 01:51:35;;;;;;;4.45;2.70;;;18.40;87.80;;;;;;3586813;39;20035;-66
2021/07/18 01:54:02;;;;;;;7.53;2.80;;;18.40;87.80;;;;;;3579948;40;20872;-67
2021/07/18 01:56:28;;;;;;;5.90;2.80;;;18.40;87.80;;;;;;3585678;40;20078;-66
2021/07/18 01:58:55;;;;;;;6.78;2.38;;;18.40;87.80;;;;;;3589334;40;20039;-67
2021/07/18 02:01:32;;;;;;;8.77;2.22;;;18.40;87.90;;;;;;3586811;39;20079;-66
2021/07/18 02:03:59;;;;;;;4.85;2.50;;;18.40;88.30;;;;;;3581538;40;20044;-66
2021/07/18 02:06:26;;;;;;;5.18;2.42;;;18.40;88.30;;;;;;3583664;40;20028;-66
2021/07/18 02:08:52;;;;;;;4.13;2.40;;;18.30;88.20;;;;;;3583431;40;20036;-66
2021/07/18 02:11:19;;;;;;;4.90;2.33;;;18.30;88.30;;;;;;3586799;39;20444;-66
2021/07/18 02:13:48;;;;;;;3.65;2.45;;;18.30;88.50;;;;;;3584328;40;20051;-67
2021/07/18 02:16:14;;;;;;;3.28;2.63;;;18.30;88.50;;;;;;3584057;39;20688;-66
2021/07/18 02:18:42;;;;;;;4.22;2.40;;;18.30;88.50;;;;;;3583969;40;20047;-64
2021/07/18 02:21:08;;;;;;;4.35;2.28;;;18.30;88.60;;;;;;3587470;40;20016;-64
2021/07/18 02:23:34;;;;;;;5.68;2.30;;;18.30;88.80;;;;;;3586198;39;20760;-67
2021/07/18 02:25:59;;;;;;;4.63;2.47;;;18.30;88.60;;;;;;3588510;40;20024;-66
2021/07/18 02:28:25;;;;;;;4.57;2.13;;;18.20;89.20;;;;;;3585732;40;20029;-66
2021/07/18 02:30:51;;;;;;;3.25;2.15;;;18.20;89.00;;;;;;3581229;40;20032;-66
2021/07/18 02:33:17;;;;;;;5.05;2.47;;;18.20;89.00;;;;;;3587061;40;20020;-66
2021/07/18 02:35:43;;;;;;;5.97;2.83;;;18.20;89.00;;;;;;3583675;40;20043;-67
2021/07/18 02:38:09;;;;;;;3.67;2.40;;;18.20;89.00;;;;;;3583568;40;20063;-66
2021/07/18 02:40:34;;;;;;;7.88;2.95;;;18.20;89.10;;;;;;3585207;40;20020;-66
2021/07/18 02:43:00;;;;;;;6.00;2.55;;;18.10;89.10;;;;;;3583106;40;20241;-66
2021/07/18 02:45:26;;;;;;;4.82;2.40;;;18.10;89.30;;;;;;3584754;40;20020;-66
2021/07/18 02:47:53;;;;;;;5.43;2.30;;;18.10;89.30;;;;;;3588721;40;20032;-66
2021/07/18 02:50:21;;;;;;;3.75;2.38;;;18.10;89.60;;;;;;3585761;40;20033;-66
2021/07/18 02:52:47;;;;;;;5.90;2.25;;;18.10;89.60;;;;;;3586095;40;20024;-66
2021/07/18 02:55:14;;;;;;;3.22;2.50;;;18.10;89.40;;;;;;3584812;40;20183;-66
2021/07/18 02:57:40;;;;;;;4.32;2.92;;;18.10;89.80;;;;;;3583033;40;20029;-66
2021/07/18 03:00:13;;;;;;;4.90;2.20;;;18.00;89.80;;;;;;3585111;40;20041;-66
2021/07/18 03:02:40;;;;;;;4.65;2.83;;;18.00;90.00;;;;;;3586931;40;20034;-66
2021/07/18 03:05:06;;;;;;;3.65;2.10;;;18.00;89.90;;;;;;3589270;39;20140;-66
2021/07/18 03:07:32;;;;;;;2.97;2.17;;;18.10;90.00;;;;;;3583570;40;20091;-66
2021/07/18 03:09:58;;;;;;;6.03;2.30;;;18.10;89.80;;;;;;3588382;40;20040;-65
2021/07/18 03:12:24;;;;;;;11.73;2.70;;;18.00;89.60;;;;;;3587253;39;20083;-65
2021/07/18 03:14:49;;;;;;;3.88;2.17;;;18.00;89.80;;;;;;3588469;40;20025;-64
2021/07/18 03:17:16;;;;;;;5.50;2.63;;;18.00;89.90;;;;;;3584734;39;20113;-65
2021/07/18 03:19:41;;;;;;;3.83;2.40;;;18.00;89.90;;;;;;3584034;39;20118;-65
2021/07/18 03:22:07;;;;;;;3.20;2.25;;;18.00;90.00;;;;;;3586055;40;20581;-65
2021/07/18 03:24:33;;;;;;;5.80;2.65;;;18.00;90.10;;;;;;3587431;39;20040;-65
2021/07/18 03:26:59;;;;;;;10.18;2.78;;;18.00;90.00;;;;;;3583953;40;20069;-65
2021/07/18 03:29:26;;;;;;;6.38;2.40;;;18.00;89.90;;;;;;3583403;40;20722;-65
2021/07/18 03:31:52;;;;;;;4.40;2.80;;;18.00;89.90;;;;;;3580902;40;20035;-65
2021/07/18 03:34:18;;;;;;;3.45;2.30;;;18.00;90.00;;;;;;3583768;40;20025;-65
2021/07/18 03:36:43;;;;;;;3.40;2.08;;;18.00;90.00;;;;;;3582764;40;20099;-65
2021/07/18 03:39:09;;;;;;;5.07;2.20;;;18.00;90.10;;;;;;3584184;40;20661;-65
2021/07/18 03:41:35;;;;;;;5.35;2.60;;;18.00;90.10;;;;;;3580899;40;20140;-64
2021/07/18 03:44:00;;;;;;;4.63;2.70;;;18.00;90.30;;;;;;3585305;39;21060;-64
2021/07/18 03:46:26;;;;;;;3.78;2.17;;;18.00;90.40;;;;;;3587753;39;20032;-64
2021/07/18 03:48:52;;;;;;;5.45;2.47;;;18.10;90.40;;;;;;3582378;40;20029;-64
2021/07/18 03:51:17;;;;;;;2.45;1.95;;;18.10;90.20;;;;;;3581407;40;20035;-64
2021/07/18 03:53:45;;;;;;;5.97;2.60;;;18.10;90.10;;;;;;3585936;40;20036;-64
2021/07/18 03:56:11;;;;;;;2.67;1.88;;;18.10;90.20;;;;;;3583081;40;20422;-64
2021/07/18 03:58:37;;;;;;;5.70;2.20;;;18.10;90.50;;;;;;3589325;40;20033;-64
2021/07/18 04:01:09;;;;;;;6.15;2.50;;;18.10;90.20;;;;;;3584408;40;20031;-64
2021/07/18 04:03:35;;;;;;;4.93;2.13;;;18.10;90.10;;;;;;3586266;39;20036;-64
2021/07/18 04:06:03;;;;;;;5.60;3.03;;;18.20;90.10;;;;;;3585351;40;20040;-63
2021/07/18 04:08:29;;;;;;;3.78;2.00;;;18.10;90.20;;;;;;3581538;40;20035;-64
2021/07/18 04:10:54;;;;;;;3.13;1.80;;;18.20;90.30;;;;;;3584950;40;20129;-64
2021/07/18 04:13:20;;;;;;;4.45;2.05;;;18.20;90.20;;;;;;3587084;39;20039;-64
2021/07/18 04:15:46;;;;;;;3.97;2.30;;;18.20;90.20;;;;;;3583520;39;20062;-66
2021/07/18 04:18:12;;;;;;;2.83;2.20;;;18.30;90.30;;;;;;3583885;40;20433;-64
2021/07/18 04:20:38;;;;;;;6.72;2.28;;;18.20;90.20;;;;;;3583905;40;20148;-64
2021/07/18 04:23:05;;;;;;;6.05;2.10;;;18.30;90.20;;;;;;3587086;40;20035;-64
2021/07/18 04:25:30;;;;;;;4.05;2.45;;;18.20;90.10;;;;;;3582534;39;20048;-64
2021/07/18 04:27:56;;;;;;;3.60;1.92;;;18.30;90.10;;;;;;3585142;39;20051;-64
2021/07/18 04:30:22;;;;;;;3.88;2.33;;;18.30;90.10;;;;;;3577526;40;20057;-64
2021/07/18 04:32:49;;;;;;;6.28;2.40;;;18.30;90.00;;;;;;3585438;40;20043;-64
2021/07/18 04:35:15;;;;;;;4.38;2.22;;;18.30;90.10;;;;;;3583700;40;20027;-64
2021/07/18 04:37:41;;;;;;;3.63;2.05;;;18.40;90.20;;;;;;3585860;40;20024;-64
2021/07/18 04:40:07;;;;;;;4.68;2.67;;;18.40;90.00;;;;;;3586320;40;20428;-64
2021/07/18 04:42:33;;;;;;;4.15;2.30;;;18.40;90.00;;;;;;3586218;39;20033;-66
2021/07/18 04:44:59;;;;;;;2.50;1.88;;;18.50;89.70;;;;;;3583979;40;20031;-65
2021/07/18 04:47:25;;;;;;;3.53;2.40;;;18.50;89.50;;;;;;3584847;40;20037;-65
2021/07/18 04:49:52;;;;;;;3.30;2.13;;;18.60;89.80;;;;;;3583811;40;20317;-64
2021/07/18 04:52:18;;;;;;;5.97;2.28;;;18.60;89.50;;;;;;3578634;40;20983;-65
2021/07/18 04:54:44;;;;;;;4.70;2.20;;;18.70;89.00;;;;;;3582762;40;20033;-65
2021/07/18 04:57:10;;;;;;;6.68;2.20;;;18.70;89.00;;;;;;3588889;39;20047;-65
2021/07/18 04:59:37;;;;;;;4.93;2.35;;;18.90;88.80;;;;;;3577842;40;20032;-65
2021/07/18 05:02:03;;;;;;;8.63;2.53;;;18.90;88.40;;;;;;3580240;40;20069;-66
2021/07/18 05:04:28;;;;;;;3.65;2.20;;;19.00;87.70;;;;;;3582497;40;20111;-65
2021/07/18 05:06:54;;;;;;;2.90;2.17;;;19.10;87.40;;;;;;3582075;40;20043;-65
2021/07/18 05:09:19;;;;;;;6.60;2.25;;;19.10;87.30;;;;;;3583635;40;20035;-65
2021/07/18 05:11:45;;;;;;;4.18;2.13;;;19.20;87.10;;;;;;3576203;40;20036;-66
2021/07/18 05:14:11;;;;;;;5.50;2.08;;;19.20;86.60;;;;;;3584599;40;20036;-65
2021/07/18 05:16:37;;;;;;;5.43;2.70;;;19.30;86.50;;;;;;3586624;39;20035;-65
2021/07/18 05:19:02;;;;;;;3.28;2.20;;;19.30;86.30;;;;;;3582906;40;20024;-65
2021/07/18 05:21:28;;;;;;;4.80;2.08;;;19.40;85.50;;;;;;3585363;40;20020;-64
2021/07/18 05:23:54;;;;;;;4.55;2.00;;;19.50;85.40;;;;;;3585051;40;20032;-64
2021/07/18 05:26:20;;;;;;;6.80;2.70;;;19.50;85.90;;;;;;3586745;40;20037;-64
2021/07/18 05:28:45;;;;;;;5.93;2.25;;;19.60;85.50;;;;;;3587019;40;20028;-64
2021/07/18 05:31:11;;;;;;;4.35;1.92;;;19.70;85.20;;;;;;3586404;39;20028;-64
2021/07/18 05:33:37;;;;;;;4.00;2.38;;;19.70;85.10;;;;;;3589768;40;20074;-65
2021/07/18 05:36:03;;;;;;;5.05;2.25;;;19.70;85.10;;;;;;3586391;40;20032;-64
2021/07/18 05:38:28;;;;;;;3.42;2.20;;;19.80;85.00;;;;;;3585960;40;20406;-64
2021/07/18 05:40:54;;;;;;;4.35;2.28;;;19.90;85.00;;;;;;3587323;40;20028;-64
2021/07/18 05:43:20;;;;;;;5.30;2.22;;;20.00;85.30;;;;;;3585444;40;20024;-65
2021/07/18 05:45:45;;;;;;;5.72;2.30;;;20.00;84.80;;;;;;3584030;40;20043;-65
2021/07/18 05:48:11;;;;;;;7.05;2.30;;;20.10;84.50;;;;;;3586192;40;20114;-65
2021/07/18 05:50:37;;;;;;;5.05;2.25;;;20.20;84.50;;;;;;3583700;40;20044;-65
2021/07/18 05:53:03;;;;;;;4.55;2.10;;;20.20;84.60;;;;;;3583824;40;20017;-65
2021/07/18 05:55:29;;;;;;;6.28;2.22;;;20.30;84.30;;;;;;3585699;40;20040;-65
2021/07/18 05:57:54;;;;;;;7.03;3.05;;;20.40;83.70;;;;;;3584265;40;20131;-68
2021/07/18 06:00:20;;;;;;;6.65;2.55;;;20.40;83.40;;;;;;3587840;40;20309;-65
2021/07/18 06:02:46;;;;;;;4.72;2.00;;;20.50;83.60;;;;;;3584262;40;20081;-65
2021/07/18 06:05:12;;;;;;;4.30;2.30;;;20.60;83.40;;;;;;3585300;40;20405;-65
2021/07/18 06:07:39;;;;;;;3.05;1.92;;;20.60;83.30;;;;;;3588696;40;20657;-65
2021/07/18 06:10:07;;;;;;;5.97;2.13;;;20.70;82.40;;;;;;3586113;39;20350;-65
2021/07/18 06:12:32;;;;;;;5.63;2.75;;;20.80;82.30;;;;;;3583678;40;20032;-65
2021/07/18 06:14:59;;;;;;;3.67;1.90;;;20.80;82.10;;;;;;3584850;40;20028;-64
2021/07/18 06:17:24;;;;;;;7.30;2.67;;;20.90;81.90;;;;;;3585236;39;20044;-66
2021/07/18 06:19:50;;;;;;;3.33;2.10;;;20.90;82.00;;;;;;3582511;39;20168;-67
2021/07/18 06:22:16;;;;;;;7.15;2.35;;;21.00;81.80;;;;;;3584757;40;20052;-66
2021/07/18 06:24:42;;;;;;;4.03;2.05;;;21.10;81.70;;;;;;3581671;40;20025;-67
2021/07/18 06:27:08;;;;;;;4.63;1.90;;;21.20;81.20;;;;;;3578556;40;20072;-67
2021/07/18 06:29:34;;;;;;;3.50;1.88;;;21.20;81.40;;;;;;3583209;40;20056;-66
2021/07/18 06:32:00;;;;;;;5.15;2.00;;;21.30;81.20;;;;;;3583656;40;20902;-67
2021/07/18 06:34:28;;;;;;;3.00;1.90;;;21.40;80.60;;;;;;3581743;40;20083;-66
2021/07/18 06:36:54;;;;;;;4.55;2.42;;;21.50;79.90;;;;;;3585828;39;20040;-67
2021/07/18 06:39:21;;;;;;;6.53;2.47;;;21.60;79.70;;;;;;3584773;40;20121;-67
2021/07/18 06:41:47;;;;;;;4.35;1.90;;;21.70;79.60;;;;;;3583097;40;20052;-66
2021/07/18 06:44:13;;;;;;;3.80;1.90;;;21.80;79.30;;;;;;3581871;40;20033;-66
2021/07/18 06:46:40;;;;;;;3.83;1.73;;;21.80;78.60;;;;;;3584369;40;20645;-66
2021/07/18 06:49:05;;;;;;;5.30;2.17;;;21.90;78.30;;;;;;3586338;40;20047;-67
2021/07/18 06:51:31;;;;;;;5.70;2.30;;;21.90;78.40;;;;;;3584159;40;20028;-66
2021/07/18 06:53:58;;;;;;;4.93;1.70;;;22.00;78.00;;;;;;3585913;40;20027;-67
2021/07/18 06:56:23;;;;;;;2.17;1.70;;;22.10;78.00;;;;;;3583243;40;20030;-67
2021/07/18 06:58:49;;;;;;;5.57;1.90;;;22.10;76.90;;;;;;3583898;40;20028;-67
2021/07/18 07:01:15;;;;;;;3.35;1.90;;;22.20;76.50;;;;;;3586129;40;20376;-65
2021/07/18 07:03:40;;;;;;;4.85;1.70;;;22.30;75.90;;;;;;3585376;40;20056;-65
2021/07/18 07:06:06;;;;;;;3.45;2.03;;;22.40;75.20;;;;;;3586581;40;20025;-66
2021/07/18 07:08:32;;;;;;;5.35;1.83;;;22.50;75.30;;;;;;3586264;39;20040;-66
2021/07/18 07:10:57;;;;;;;4.88;1.92;;;22.50;74.50;;;;;;3587871;40;20789;-66
2021/07/18 07:13:23;;;;;;;4.72;2.10;;;22.50;74.30;;;;;;3587903;39;20041;-64
2021/07/18 07:15:49;;;;;;;4.13;1.50;;;22.60;74.10;;;;;;3583455;39;20025;-64
2021/07/18 07:18:15;;;;;;;3.60;1.48;;;22.70;73.50;;;;;;3575144;40;20035;-64
2021/07/18 07:20:41;;;;;;;1.90;1.60;;;22.80;73.30;;;;;;3584396;39;20028;-64
2021/07/18 07:23:09;;;;;;;3.40;1.70;;;22.80;73.10;;;;;;3583652;40;20185;-64
2021/07/18 07:25:35;;;;;;;1.75;1.25;;;22.80;73.40;;;;;;3585433;39;20025;-64
2021/07/18 07:28:01;;;;;;;3.92;2.10;;;22.80;73.20;;;;;;3586447;40;20040;-64
2021/07/18 07:30:27;;;;;;;2.60;1.85;;;22.90;73.50;;;;;;3586393;39;20036;-64
2021/07/18 07:32:52;;;;;;;3.33;1.48;;;23.00;73.30;;;;;;3583754;40;20522;-65
2021/07/18 07:35:18;;;;;;;6.22;2.05;;;23.10;72.60;;;;;;3584756;39;20032;-64
2021/07/18 07:37:45;;;;;;;4.28;1.50;;;23.20;71.40;;;;;;3583298;40;20028;-65
2021/07/18 07:40:14;;;;;;;4.55;1.45;;;23.20;71.80;;;;;;3587816;39;20872;-64
2021/07/18 07:42:40;;;;;;;4.25;1.70;;;23.30;71.80;;;;;;3584419;39;20043;-65
2021/07/18 07:45:09;;;;;;;2.95;1.45;;;23.30;70.60;;;;;;3582662;40;20080;-64
2021/07/18 07:47:35;;;;;;;2.03;1.80;;;23.40;70.10;;;;;;3582998;40;20029;-65
2021/07/18 07:50:01;;;;;;;2.40;1.50;;;23.40;70.10;;;;;;3582649;40;20317;-64
2021/07/18 07:52:27;;;;;;;2.65;1.50;;;23.40;70.30;;;;;;3584754;40;20032;-65
2021/07/18 07:54:53;;;;;;;1.80;1.27;;;23.50;69.50;;;;;;3577563;40;20088;-65
2021/07/18 07:57:18;;;;;;;5.93;1.42;;;23.50;69.20;;;;;;3585143;39;20048;-65
2021/07/18 07:59:44;;;;;;;2.50;1.33;;;23.60;69.10;;;;;;3583123;40;20051;-64
2021/07/18 08:02:10;;;;;;;3.55;1.60;;;23.60;68.50;;;;;;3583209;40;20044;-65
2021/07/18 08:04:36;;;;;;;4.30;1.60;;;23.70;67.70;;;;;;3583602;40;20354;-66
2021/07/18 08:07:01;;;;;;;3.50;1.60;;;23.70;68.00;;;;;;3584280;40;20134;-66
2021/07/18 08:09:28;;;;;;;5.47;1.45;;;23.80;68.00;;;;;;3583820;40;20149;-66
2021/07/18 08:11:54;;;;;;;2.67;1.52;;;23.90;67.60;;;;;;3583619;40;20047;-65
2021/07/18 08:14:20;;;;;;;2.53;1.50;;;24.00;66.50;;;;;;3584709;39;20411;-66
2021/07/18 08:16:46;;;;;;;1.88;1.27;;;24.00;66.20;;;;;;3583167;39;20523;-65
2021/07/18 08:19:13;;;;;;;1.55;1.13;;;24.00;65.60;;;;;;3583934;39;20020;-65
2021/07/18 08:21:39;;;;;;;2.25;1.25;;;24.00;66.10;;;;;;3584263;39;20624;-65
2021/07/18 08:24:04;;;;;;;3.47;1.30;;;24.10;66.30;;;;;;3583647;40;20028;-65
2021/07/18 08:26:30;;;;;;;2.42;1.35;;;24.20;66.30;;;;;;3580318;40;20052;-64
2021/07/18 08:28:56;;;;;;;3.90;1.60;;;24.30;65.10;;;;;;3583773;39;20108;-64
2021/07/18 08:31:21;;;;;;;2.90;1.27;;;24.30;63.90;;;;;;3581351;40;20025;-64
2021/07/18 08:33:47;;;;;;;2.80;1.10;;;24.40;63.90;;;;;;3586340;39;20028;-64
2021/07/18 08:36:13;;;;;;;3.72;1.40;;;24.50;64.00;;;;;;3584440;40;20059;-68
2021/07/18 08:38:38;;;;;;;4.13;1.55;;;24.60;63.10;;;;;;3584427;40;20128;-65
2021/07/18 08:41:04;;;;;;;2.35;1.17;;;24.70;63.60;;;;;;3581196;40;20061;-64
2021/07/18 08:43:31;;;;;;;3.22;1.58;;;24.70;62.90;;;;;;3586598;39;20035;-65
2021/07/18 08:45:57;;;;;;;9.18;4.95;;;24.80;62.30;;;;;;3572614;40;20041;-65
2021/07/18 08:48:23;;;;;;;2.70;1.95;;;24.90;63.40;;;;;;3581094;40;20717;-65
2021/07/18 08:50:50;;;;;;;5.55;2.45;;;25.00;62.00;;;;;;3583718;40;20122;-65
2021/07/18 08:53:16;;;;;;;2.42;1.27;;;25.00;61.30;;;;;;3572384;40;20034;-65
2021/07/18 08:55:43;;;;;;;3.15;1.67;;;25.10;60.30;;;;;;3576407;39;20040;-65
2021/07/18 08:58:10;;;;;;;1.30;1.17;;;25.20;61.90;;;;;;3584215;40;20040;-64
2021/07/18 09:00:35;;;;;;;4.90;1.30;;;25.20;61.80;;;;;;3584236;39;20033;-66
2021/07/18 09:03:01;;;;;;;2.72;1.27;;;25.30;60.50;;;;;;3583640;39;20299;-66
2021/07/18 09:05:27;;;;;;;2.10;1.67;;;25.40;60.40;;;;;;3587758;40;20036;-65
2021/07/18 09:07:54;;;;;;;1.52;1.10;;;25.40;59.80;;;;;;3584288;40;20063;-65
2021/07/18 09:10:21;;;;;;;2.92;1.65;;;25.50;59.40;;;;;;3583268;39;20067;-65
2021/07/18 09:13:04;;;;;;;2.75;1.20;;;25.60;58.40;;;;;;3584600;40;20028;-64
2021/07/18 09:15:50;;;;;;;1.83;1.10;;;25.60;58.40;;;;;;3586633;40;20146;-64
2021/07/18 09:18:17;;;;;;;2.35;1.27;;;25.60;58.20;;;;;;3586026;40;20051;-66
2021/07/18 09:20:48;;;;;;;2.08;1.10;;;25.70;59.60;;;;;;3589989;40;20123;-70
2021/07/18 09:23:28;;;;;;;3.25;1.20;;;25.70;58.50;;;;;;3586380;39;20036;-66
2021/07/18 09:26:18;;;;;;;2.97;1.20;;;25.80;57.10;;;;;;3587696;40;20047;-66
2021/07/18 09:28:43;;;;;;;6.30;1.40;;;25.70;58.40;;;;;;3586062;40;20125;-66
2021/07/18 09:31:29;;;;;;;1.85;1.00;;;25.80;59.00;;;;;;3587489;39;20118;-65
2021/07/18 09:34:20;;;;;;;3.00;1.25;;;25.80;58.30;;;;;;3582965;40;20144;-65
2021/07/18 09:36:47;;;;;;;2.90;1.50;;;25.90;59.40;;;;;;3582994;40;20041;-66
2021/07/18 09:39:13;;;;;;;4.78;1.92;;;26.00;58.00;;;;;;3582052;39;20421;-66
2021/07/18 09:41:44;;;;;;;3.08;1.67;;;26.10;58.20;;;;;;3586850;39;20037;-66
2021/07/18 09:44:10;;;;;;;2.90;1.40;;;26.00;57.80;;;;;;3583299;40;20025;-66
2021/07/18 09:46:38;;;;;;;5.75;1.50;;;26.10;57.70;;;;;;3584443;40;20042;-66
2021/07/18 09:49:05;;;;;;;3.60;1.40;;;26.10;57.10;;;;;;3584211;40;20029;-67
2021/07/18 09:51:32;;;;;;;1.80;1.05;;;26.10;57.10;;;;;;3588186;40;20554;-66
2021/07/18 09:54:19;;;;;;;1.60;1.02;;;26.20;57.60;;;;;;3585152;40;20028;-66
2021/07/18 09:56:45;;;;;;;2.65;1.17;;;26.30;57.30;;;;;;3584401;40;20036;-66
2021/07/18 09:59:10;;;;;;;1.73;1.00;;;26.30;56.70;;;;;;3586613;40;20099;-66
2021/07/18 10:01:36;;;;;;;3.53;1.00;;;26.30;57.30;;;;;;3577496;40;20052;-66
2021/07/18 10:04:03;;;;;;;1.35;1.00;;;26.40;57.40;;;;;;3584600;40;20033;-66
2021/07/18 10:06:32;;;;;;;3.70;1.23;;;26.40;57.70;;;;;;3586485;40;20068;-66
2021/07/18 10:09:02;;;;;;;3.53;1.83;;;26.40;57.90;;;;;;3587162;40;20076;-66
2021/07/18 10:11:30;;;;;;;2.92;1.25;;;26.50;58.50;;;;;;3588048;39;20164;-66
2021/07/18 10:13:58;;;;;;;3.75;1.20;;;26.60;57.70;;;;;;3584251;40;20390;-66
2021/07/18 10:16:28;;;;;;;3.38;1.50;;;26.60;57.20;;;;;;3588576;39;20016;-66
2021/07/18 10:18:55;;;;;;;8.95;1.55;;;26.60;57.30;;;;;;3583645;40;20126;-66
2021/07/18 10:21:24;;;;;;;7.78;1.20;;;26.70;58.40;;;;;;3585646;40;20161;-67
2021/07/18 10:23:52;;;;;;;4.38;1.40;;;26.70;57.30;;;;;;3584018;39;20071;-67
2021/07/18 10:26:25;;;;;;;3.25;1.25;;;26.80;58.20;;;;;;3587605;40;20141;-66
2021/07/18 10:28:52;;;;;;;2.63;1.30;;;26.80;57.00;;;;;;3582495;40;20052;-67
2021/07/18 10:31:23;;;;;;;2.60;1.13;;;26.80;56.90;;;;;;3581712;40;20039;-67
2021/07/18 10:33:50;;;;;;;4.65;1.20;;;26.80;57.60;;;;;;3584031;40;20125;-66
2021/07/18 10:36:19;;;;;;;2.13;1.10;;;26.80;57.50;;;;;;3589713;39;20046;-67
2021/07/18 10:38:45;;;;;;;4.07;1.52;;;27.00;57.80;;;;;;3585632;39;20406;-66
2021/07/18 10:41:12;;;;;;;3.90;1.30;;;27.00;57.40;;;;;;3582620;40;20048;-67
2021/07/18 10:43:56;;;;;;;4.22;1.50;;;27.00;57.80;;;;;;3586353;39;20032;-67
2021/07/18 10:46:40;;;;;;;3.08;1.20;;;27.10;57.90;;;;;;3584654;40;20102;-67
2021/07/18 10:49:06;;;;;;;2.45;1.13;;;27.00;57.80;;;;;;3584891;40;20100;-66
2021/07/18 10:51:37;;;;;;;2.42;1.00;;;27.10;57.10;;;;;;3582741;40;20310;-67
2021/07/18 10:54:09;;;;;;;4.35;1.10;;;27.20;57.30;;;;;;3584441;40;20042;-67
2021/07/18 10:56:49;;;;;;;1.90;1.13;;;27.40;57.80;;;;;;3584331;39;20115;-66
2021/07/18 10:59:51;;;;;;;1.10;1.00;;;27.50;57.00;;;;;;3585792;39;20417;-66
2021/07/18 11:02:19;;;;;;;6.18;2.83;;;27.40;55.10;;;;;;3587637;39;20039;-66
2021/07/18 11:04:45;;;;;;;2.80;1.60;;;27.40;57.10;;;;;;3584006;40;20073;-67
2021/07/18 11:07:20;;;;;;;3.60;1.77;;;27.50;56.40;;;;;;3588825;40;20290;-66
2021/07/18 11:10:09;;;;;;;1.70;1.20;;;27.60;56.00;;;;;;3584123;39;20032;-66
2021/07/18 11:12:37;;;;;;;3.53;1.48;;;27.70;56.30;;;;;;3579816;40;20641;-66
2021/07/18 11:15:15;;;;;;;3.42;1.27;;;27.60;56.80;;;;;;3585553;40;20519;-66
2021/07/18 11:18:01;;;;;;;5.20;1.08;;;27.60;57.00;;;;;;3586069;40;20055;-66
2021/07/18 11:20:53;;;;;;;3.45;0.98;;;27.50;56.40;;;;;;3585417;39;20035;-66
2021/07/18 11:23:37;;;;;;;2.05;1.00;;;27.50;54.60;;;;;;3581857;40;20671;-66
2021/07/18 11:26:03;;;;;;;4.55;1.23;;;27.50;56.90;;;;;;3584179;40;20110;-66
2021/07/18 11:28:34;;;;;;;1.15;0.98;;;27.60;56.70;;;;;;3589212;40;20868;-66
2021/07/18 11:31:14;;;;;;;3.47;1.10;;;27.60;56.20;;;;;;3585106;39;20101;-66
2021/07/18 11:33:58;;;;;;;1.63;1.30;;;27.70;57.10;;;;;;3588110;40;20028;-67
2021/07/18 11:36:33;;;;;;;2.70;1.10;;;27.70;56.60;;;;;;3581660;40;20028;-66
2021/07/18 11:39:11;;;;;;;3.20;1.27;;;27.80;56.40;;;;;;3583471;40;20102;-66
2021/07/18 11:41:37;;;;;;;1.48;1.05;;;27.80;56.30;;;;;;3580604;40;20033;-66
2021/07/18 11:44:04;;;;;;;2.13;1.00;;;27.80;57.40;;;;;;3587219;40;20112;-66
2021/07/18 11:46:37;;;;;;;2.53;1.50;;;27.90;56.40;;;;;;3584258;39;20098;-66
2021/07/18 11:49:04;;;;;;;3.35;1.50;;;28.00;55.00;;;;;;3581871;40;20029;-66
2021/07/18 11:51:33;;;;;;;1.83;0.98;;;28.10;55.60;;;;;;3588032;40;20305;-66
2021/07/18 11:54:00;;;;;;;3.15;1.40;;;28.10;55.20;;;;;;3584175;40;20114;-66
2021/07/18 11:56:31;;;;;;;2.00;1.20;;;28.10;55.70;;;;;;3583157;40;20450;-66
2021/07/18 11:59:01;;;;;;;4.72;1.10;;;28.10;56.20;;;;;;3584226;40;20043;-66
2021/07/18 12:01:29;;;;;;;3.70;1.45;;;28.00;55.90;;;;;;3580587;40;20017;-66
2021/07/18 12:03:56;;;;;;;2.55;1.17;;;27.90;56.30;;;;;;3583363;40;20125;-66
2021/07/18 12:06:27;;;;;;;1.20;1.10;;;28.00;56.40;;;;;;3588471;40;20111;-66
2021/07/18 12:08:56;;;;;;;2.15;1.23;;;28.00;55.90;;;;;;3584170;39;20036;-66
2021/07/18 12:11:27;;;;;;;2.05;1.20;;;28.10;54.70;;;;;;3587310;40;20028;-66
2021/07/18 12:13:53;;;;;;;2.13;1.10;;;27.90;54.60;;;;;;3582638;40;20052;-66
2021/07/18 12:16:22;;;;;;;1.92;1.00;;;27.90;56.30;;;;;;3585167;40;20024;-66
2021/07/18 12:18:50;;;;;;;1.45;1.10;;;28.00;57.00;;;;;;3585338;40;20685;-66
2021/07/18 12:21:20;;;;;;;2.95;1.35;;;28.00;56.00;;;;;;3585681;40;20039;-66
2021/07/18 12:24:25;;;;;;;3.22;1.10;;;28.10;56.10;;;;;;3587813;40;20035;-66
2021/07/18 12:27:10;;;;;;;3.15;0.88;;;28.10;55.50;;;;;;3583726;40;20068;-66
2021/07/18 12:29:39;;;;;;;2.28;1.10;;;28.20;54.50;;;;;;3581260;40;20048;-66
2021/07/18 12:32:07;;;;;;;2.58;1.17;;;28.20;54.60;;;;;;3583378;40;20138;-66
2021/07/18 12:34:52;;;;;;;2.08;1.00;;;28.30;54.00;;;;;;3580114;40;20072;-66
2021/07/18 12:37:20;;;;;;;4.38;1.20;;;28.40;53.90;;;;;;3583909;40;20198;-66
2021/07/18 12:39:52;;;;;;;1.10;0.88;;;28.40;54.00;;;;;;3582950;40;20044;-66
2021/07/18 12:42:25;;;;;;;3.72;1.20;;;28.50;54.00;;;;;;3584818;40;20017;-66
2021/07/18 12:44:54;;;;;;;3.03;1.20;;;28.40;53.70;;;;;;3583528;40;20130;-66
2021/07/18 12:47:25;;;;;;;1.73;1.10;;;28.50;53.80;;;;;;3585469;40;20076;-66
2021/07/18 12:50:12;;;;;;;2.83;0.98;;;28.60;53.90;;;;;;3588880;40;20439;-66